Time;durP1;ratioP1;P1;durP2;ratioP2;P2;SDS_P1;SDS_P2;PMS_P1;PMS_P2;Temp;Humidity;BMP_temperature;BMP_pressure;BME280_temperature;BME280_humidity;BME280_pressure;Samples;Min_cycle;Max_cycle;Signal;HPM_P1;HPM_P2
2022/03/12 00:00:07;;;;;;;163.98;75.50;;;0.10;56.50;;;;;;5013863;28;20431;-60
2022/03/12 00:02:34;;;;;;;127.47;55.93;;;0.10;56.70;;;;;;5013901;28;20037;-60
2022/03/12 00:05:04;;;;;;;191.30;84.53;;;0.00;57.00;;;;;;5013993;28;20075;-60
2022/03/12 00:07:30;;;;;;;192.00;86.18;;;-0.10;57.30;;;;;;5013632;28;20026;-60
2022/03/12 00:09:57;;;;;;;219.67;91.13;;;-0.20;58.00;;;;;;5013691;28;20033;-60
2022/03/12 00:12:22;;;;;;;156.95;69.70;;;-0.20;58.30;;;;;;5013261;28;20133;-60
2022/03/12 00:14:48;;;;;;;142.83;63.23;;;-0.30;58.60;;;;;;5013594;28;20500;-60
2022/03/12 00:17:15;;;;;;;163.13;72.33;;;-0.20;58.10;;;;;;5013617;28;20468;-60
2022/03/12 00:19:42;;;;;;;147.07;64.47;;;-0.20;57.90;;;;;;5013469;28;20033;-60
2022/03/12 00:22:09;;;;;;;195.03;80.53;;;-0.10;57.60;;;;;;5045082;28;20388;-60
2022/03/12 00:24:42;;;;;;;174.93;81.95;;;-0.10;57.60;;;;;;5014042;28;20084;-60
2022/03/12 00:27:09;;;;;;;152.27;64.67;;;-0.40;58.80;;;;;;5013343;28;20034;-60
2022/03/12 00:29:36;;;;;;;198.43;84.97;;;-0.50;59.90;;;;;;5013506;28;20383;-60
2022/03/12 00:32:06;;;;;;;143.57;65.38;;;-0.40;58.70;;;;;;5013751;28;20377;-60
2022/03/12 00:34:31;;;;;;;145.57;62.43;;;-0.40;58.70;;;;;;5013529;28;20044;-60
2022/03/12 00:36:57;;;;;;;136.33;57.37;;;-0.30;58.60;;;;;;5013245;28;20025;-61
2022/03/12 00:39:23;;;;;;;141.90;58.50;;;-0.40;58.60;;;;;;5013391;28;20026;-60
2022/03/12 00:41:48;;;;;;;107.73;47.10;;;-0.40;58.10;;;;;;5013265;28;20022;-60
2022/03/12 00:44:19;;;;;;;106.80;48.30;;;-0.40;57.10;;;;;;5013592;28;20104;-60
2022/03/12 00:46:45;;;;;;;100.30;43.87;;;-0.50;57.60;;;;;;5017029;28;20109;-60
2022/03/12 00:49:11;;;;;;;97.07;43.13;;;-0.40;57.30;;;;;;5017391;28;20048;-60
2022/03/12 00:51:38;;;;;;;86.50;41.47;;;-0.40;58.10;;;;;;5017038;28;20469;-60
2022/03/12 00:54:04;;;;;;;97.93;43.20;;;-0.40;57.10;;;;;;5017268;28;20034;-59
2022/03/12 00:56:30;;;;;;;85.80;40.47;;;-0.50;57.10;;;;;;5017059;28;20392;-60
2022/03/12 00:58:57;;;;;;;126.03;54.60;;;-0.50;56.80;;;;;;5017059;28;20050;-60
2022/03/12 01:01:23;;;;;;;113.60;51.70;;;-0.50;57.00;;;;;;5017153;28;20026;-59
2022/03/12 01:03:49;;;;;;;114.73;49.40;;;-0.70;57.50;;;;;;5017069;28;20104;-60
2022/03/12 01:06:18;;;;;;;96.63;45.27;;;-0.70;57.90;;;;;;5016736;28;20054;-60
2022/03/12 01:08:45;;;;;;;104.17;45.30;;;-0.80;58.20;;;;;;5016934;28;20124;-59
2022/03/12 01:11:11;;;;;;;128.37;55.33;;;-0.80;57.70;;;;;;5017127;28;20033;-60
2022/03/12 01:13:38;;;;;;;138.83;59.90;;;-0.80;57.70;;;;;;5016547;28;20068;-60
2022/03/12 01:16:05;;;;;;;111.00;49.50;;;-0.70;57.90;;;;;;5016766;28;20473;-60
2022/03/12 01:18:31;;;;;;;115.27;50.57;;;-0.70;58.20;;;;;;5016599;28;20028;-60
2022/03/12 01:21:08;;;;;;;99.37;44.20;;;-0.80;58.40;;;;;;5016838;28;20026;-60
2022/03/12 01:23:34;;;;;;;98.20;43.70;;;-0.80;58.70;;;;;;5016700;28;20026;-60
2022/03/12 01:26:00;;;;;;;108.83;45.63;;;-0.80;58.40;;;;;;5016525;28;20080;-60
2022/03/12 01:28:26;;;;;;;113.70;48.00;;;-1.00;58.00;;;;;;5048491;28;20439;-60
2022/03/12 01:30:54;;;;;;;105.03;46.47;;;-0.90;58.20;;;;;;5016563;28;20033;-60
2022/03/12 01:33:20;;;;;;;100.50;42.17;;;-1.00;59.20;;;;;;5016160;28;20045;-60
2022/03/12 01:35:45;;;;;;;121.60;51.63;;;-1.00;59.00;;;;;;5016431;28;20037;-60
2022/03/12 01:38:12;;;;;;;107.03;44.07;;;-1.10;59.10;;;;;;5016411;28;20022;-60
2022/03/12 01:40:38;;;;;;;111.40;49.10;;;-1.10;59.60;;;;;;5016385;28;20072;-60
2022/03/12 01:43:05;;;;;;;89.93;40.70;;;-1.10;59.80;;;;;;5016243;28;20037;-60
2022/03/12 01:45:31;;;;;;;105.67;42.20;;;-1.10;60.60;;;;;;5016260;28;20022;-60
2022/03/12 01:47:59;;;;;;;139.93;61.33;;;-1.10;60.10;;;;;;5016006;28;20050;-60
2022/03/12 01:50:31;;;;;;;105.10;46.20;;;-1.10;59.60;;;;;;5016169;28;20487;-60
2022/03/12 01:53:05;;;;;;;100.90;41.77;;;-1.20;59.80;;;;;;5016103;28;20083;-60
2022/03/12 01:55:32;;;;;;;87.83;40.47;;;-1.20;60.10;;;;;;5016269;28;20022;-60
2022/03/12 01:58:02;;;;;;;76.83;34.73;;;-1.20;59.30;;;;;;5015232;28;20067;-60
2022/03/12 02:00:58;;;;;;;82.03;36.23;;;-1.20;59.30;;;;;;5016011;28;20017;-60
2022/03/12 02:03:28;;;;;;;77.27;34.43;;;-1.20;59.30;;;;;;5019719;28;20042;-60
2022/03/12 02:05:58;;;;;;;72.03;32.40;;;-1.10;59.30;;;;;;5016213;28;20053;-60
2022/03/12 02:08:25;;;;;;;85.37;38.23;;;-1.20;59.70;;;;;;5015835;28;20025;-60
2022/03/12 02:10:57;;;;;;;80.17;37.63;;;-1.20;59.20;;;;;;5015860;28;20358;-60
2022/03/12 02:13:24;;;;;;;113.77;47.57;;;-1.20;59.20;;;;;;5015383;28;20515;-60
2022/03/12 02:15:57;;;;;;;76.07;35.33;;;-1.20;59.10;;;;;;5015669;28;20022;-60
2022/03/12 02:18:23;;;;;;;86.25;36.08;;;-1.30;59.40;;;;;;5015459;28;20093;-60
2022/03/12 02:20:49;;;;;;;93.13;40.70;;;-1.30;59.30;;;;;;5015493;28;20468;-60
2022/03/12 02:23:15;;;;;;;77.13;34.20;;;-1.30;59.20;;;;;;5015516;28;20113;-60
2022/03/12 02:25:40;;;;;;;124.83;55.83;;;-1.30;59.20;;;;;;5015584;28;20026;-60
2022/03/12 02:28:18;;;;;;;100.93;44.57;;;-1.30;59.00;;;;;;5015450;28;20551;-60
2022/03/12 02:30:51;;;;;;;87.10;38.10;;;-1.40;59.40;;;;;;5015423;28;20073;-60
2022/03/12 02:33:29;;;;;;;94.32;41.95;;;-1.60;59.80;;;;;;5015316;28;20041;-60
2022/03/12 02:35:56;;;;;;;76.17;34.97;;;-1.50;59.30;;;;;;5015334;28;20029;-60
2022/03/12 02:38:23;;;;;;;70.10;33.50;;;-1.60;59.20;;;;;;5015267;28;20098;-60
2022/03/12 02:40:49;;;;;;;63.73;30.73;;;-1.60;59.20;;;;;;5015136;28;20121;-60
2022/03/12 02:43:26;;;;;;;70.97;33.17;;;-1.60;59.50;;;;;;5015167;28;20026;-60
2022/03/12 02:45:57;;;;;;;73.83;32.90;;;-1.60;59.50;;;;;;5015021;28;20026;-60
2022/03/12 02:48:25;;;;;;;92.60;38.63;;;-1.70;59.90;;;;;;5015055;28;20431;-60
2022/03/12 02:50:53;;;;;;;72.10;32.60;;;-1.80;60.50;;;;;;5015007;28;20461;-60
2022/03/12 02:53:18;;;;;;;86.33;37.97;;;-1.90;61.40;;;;;;5014951;28;20025;-60
2022/03/12 02:55:45;;;;;;;74.13;33.40;;;-2.00;61.50;;;;;;5014908;28;20101;-60
2022/03/12 02:58:14;;;;;;;77.83;35.07;;;-2.00;61.80;;;;;;5014894;28;20022;-60
2022/03/12 03:00:40;;;;;;;84.00;40.23;;;-1.90;61.40;;;;;;5014870;28;20160;-60
2022/03/12 03:03:06;;;;;;;61.37;29.47;;;-2.00;60.50;;;;;;5014657;28;20109;-60
2022/03/12 03:05:45;;;;;;;64.20;30.40;;;-2.00;61.10;;;;;;5014718;28;20057;-61
2022/03/12 03:08:13;;;;;;;71.90;33.20;;;-2.00;61.10;;;;;;5014621;28;20065;-60
2022/03/12 03:10:44;;;;;;;57.73;27.03;;;-2.10;61.10;;;;;;5014897;28;20380;-60
2022/03/12 03:13:19;;;;;;;63.07;29.37;;;-2.10;61.50;;;;;;5014412;28;20404;-60
2022/03/12 03:15:59;;;;;;;80.63;37.80;;;-2.10;61.60;;;;;;5014330;28;20037;-61
2022/03/12 03:18:30;;;;;;;76.30;35.27;;;-2.10;61.80;;;;;;5014591;28;20025;-61
2022/03/12 03:20:56;;;;;;;87.80;41.53;;;-2.20;62.30;;;;;;5013187;28;20447;-61
2022/03/12 03:23:24;;;;;;;67.57;31.87;;;-2.30;62.20;;;;;;5014417;28;20370;-60
2022/03/12 03:25:50;;;;;;;71.10;33.97;;;-2.30;62.50;;;;;;5014693;28;20479;-60
2022/03/12 03:28:16;;;;;;;59.57;28.40;;;-2.30;62.40;;;;;;5014317;28;20065;-60
2022/03/12 03:30:42;;;;;;;61.63;28.20;;;-2.40;62.80;;;;;;5014123;28;20034;-61
2022/03/12 03:33:10;;;;;;;57.57;28.03;;;-2.40;63.10;;;;;;5014265;28;20101;-60
2022/03/12 03:35:40;;;;;;;69.67;30.23;;;-2.40;62.60;;;;;;5014283;28;20090;-61
2022/03/12 03:38:06;;;;;;;54.73;26.67;;;-2.50;62.70;;;;;;5014365;28;20104;-61
2022/03/12 03:40:32;;;;;;;56.40;26.10;;;-2.60;62.80;;;;;;5014226;28;20532;-60
2022/03/12 03:42:58;;;;;;;61.37;30.63;;;-2.60;63.80;;;;;;5014007;28;20108;-61
2022/03/12 03:45:27;;;;;;;55.27;26.27;;;-2.60;62.80;;;;;;5013938;28;20052;-61
2022/03/12 03:47:57;;;;;;;52.70;24.83;;;-2.50;63.00;;;;;;5014091;28;20113;-61
2022/03/12 03:50:26;;;;;;;52.43;22.03;;;-2.50;62.60;;;;;;5013970;28;20018;-61
2022/03/12 03:53:03;;;;;;;45.97;22.20;;;-2.40;62.50;;;;;;5013939;28;20046;-61
2022/03/12 03:55:33;;;;;;;55.37;25.10;;;-2.40;62.20;;;;;;5013815;28;20058;-60
2022/03/12 03:58:00;;;;;;;52.17;24.10;;;-2.40;62.20;;;;;;5013800;28;20018;-60
2022/03/12 04:00:27;;;;;;;48.37;21.63;;;-2.50;62.80;;;;;;5013956;28;20021;-60
2022/03/12 04:03:04;;;;;;;44.93;20.80;;;-2.50;63.70;;;;;;5014013;28;20025;-60
2022/03/12 04:05:35;;;;;;;49.97;22.73;;;-2.50;63.50;;;;;;5013892;28;20413;-61
2022/03/12 04:08:06;;;;;;;62.83;28.37;;;-2.40;62.10;;;;;;5014135;28;20026;-60
2022/03/12 04:10:32;;;;;;;72.13;33.10;;;-2.40;62.00;;;;;;5013716;28;20123;-60
2022/03/12 04:12:58;;;;;;;58.93;26.80;;;-2.50;62.70;;;;;;5013231;28;20408;-61
2022/03/12 04:15:25;;;;;;;51.73;23.27;;;-2.60;63.10;;;;;;5013735;28;20029;-61
2022/03/12 04:17:52;;;;;;;42.97;21.83;;;-2.60;63.60;;;;;;5013588;28;20465;-61
2022/03/12 04:20:18;;;;;;;51.67;23.77;;;-2.50;62.90;;;;;;5013453;28;20034;-61
2022/03/12 04:22:47;;;;;;;67.73;32.37;;;-2.40;62.40;;;;;;5013620;28;20049;-60
2022/03/12 04:25:13;;;;;;;76.10;35.93;;;-2.50;62.30;;;;;;5013533;28;20100;-61
2022/03/12 04:27:42;;;;;;;59.07;26.87;;;-2.70;64.00;;;;;;5013460;28;20026;-61
2022/03/12 04:30:10;;;;;;;51.23;25.77;;;-2.80;64.20;;;;;;5013713;28;20037;-60
2022/03/12 04:32:36;;;;;;;54.57;25.87;;;-2.80;64.60;;;;;;5013509;28;20045;-61
2022/03/12 04:35:04;;;;;;;52.20;26.07;;;-2.80;63.90;;;;;;5013484;28;20026;-60
2022/03/12 04:37:32;;;;;;;57.00;27.00;;;-2.70;63.40;;;;;;5013687;28;20026;-61
2022/03/12 04:39:57;;;;;;;52.47;24.40;;;-2.70;63.40;;;;;;5013535;28;20046;-60
2022/03/12 04:42:23;;;;;;;56.53;25.23;;;-2.70;63.80;;;;;;5013310;28;20495;-60
2022/03/12 04:44:50;;;;;;;54.63;26.40;;;-2.70;63.30;;;;;;5013412;28;20101;-60
2022/03/12 04:47:18;;;;;;;52.80;24.97;;;-2.60;63.30;;;;;;5013590;28;20422;-60
2022/03/12 04:49:43;;;;;;;49.93;23.90;;;-2.70;63.20;;;;;;5013447;28;20030;-61
2022/03/12 04:52:11;;;;;;;62.20;29.97;;;-2.70;63.20;;;;;;5013290;28;20416;-61
2022/03/12 04:54:37;;;;;;;53.90;26.30;;;-2.70;63.20;;;;;;5013077;28;20030;-60
2022/03/12 04:57:03;;;;;;;50.90;25.90;;;-2.70;63.50;;;;;;5013043;28;20018;-60
2022/03/12 04:59:29;;;;;;;120.57;50.50;;;-2.70;63.40;;;;;;5013245;28;20105;-60
2022/03/12 05:01:57;;;;;;;66.23;31.37;;;-2.70;63.50;;;;;;5013397;28;20045;-60
2022/03/12 05:04:23;;;;;;;73.87;33.97;;;-2.80;64.30;;;;;;5013106;28;20443;-60
2022/03/12 05:06:48;;;;;;;82.87;38.50;;;-2.90;64.40;;;;;;5013194;28;20084;-60
2022/03/12 05:09:14;;;;;;;87.23;39.10;;;-2.80;63.80;;;;;;5013011;28;20033;-60
2022/03/12 05:11:40;;;;;;;77.27;34.77;;;-2.80;63.90;;;;;;5012878;28;20105;-60
2022/03/12 05:14:10;;;;;;;108.80;47.67;;;-2.80;64.70;;;;;;5013065;28;20096;-60
2022/03/12 05:16:36;;;;;;;71.93;34.57;;;-2.80;64.00;;;;;;5012943;28;20535;-61
2022/03/12 05:19:06;;;;;;;61.90;31.83;;;-2.80;64.20;;;;;;5013319;28;20105;-60
2022/03/12 05:21:32;;;;;;;58.33;28.53;;;-2.80;64.60;;;;;;5013031;28;20080;-60
2022/03/12 05:23:58;;;;;;;72.37;33.80;;;-2.80;63.60;;;;;;5012905;28;20030;-60
2022/03/12 05:26:24;;;;;;;63.37;30.93;;;-2.80;63.20;;;;;;5012974;28;20029;-61
2022/03/12 05:28:50;;;;;;;60.27;26.77;;;-2.80;63.20;;;;;;5012924;28;20469;-61
2022/03/12 05:31:17;;;;;;;58.73;27.50;;;-2.70;63.30;;;;;;5012872;28;20032;-60
2022/03/12 05:33:43;;;;;;;59.93;25.90;;;-2.70;63.30;;;;;;5016205;28;20543;-60
2022/03/12 05:36:09;;;;;;;63.97;29.77;;;-2.70;63.30;;;;;;5016488;28;20057;-60
2022/03/12 05:38:36;;;;;;;67.20;31.07;;;-2.60;63.60;;;;;;5016407;28;20052;-60
2022/03/12 05:41:06;;;;;;;50.30;24.60;;;-2.70;63.30;;;;;;5016342;28;20379;-61
2022/03/12 05:43:33;;;;;;;52.60;24.57;;;-2.70;64.30;;;;;;5016378;28;20112;-60
2022/03/12 05:46:00;;;;;;;44.57;21.13;;;-2.70;63.80;;;;;;5016203;28;20026;-60
2022/03/12 05:48:27;;;;;;;47.27;22.67;;;-2.60;63.50;;;;;;5016284;28;20431;-60
2022/03/12 05:50:53;;;;;;;51.50;24.67;;;-2.60;63.40;;;;;;5016297;28;20022;-60
2022/03/12 05:53:19;;;;;;;61.80;28.17;;;-2.50;62.50;;;;;;5015894;28;20106;-61
2022/03/12 05:55:47;;;;;;;74.87;35.53;;;-2.50;62.70;;;;;;5015885;28;20041;-60
2022/03/12 05:58:15;;;;;;;85.10;39.23;;;-2.50;63.00;;;;;;5016058;28;20026;-60
2022/03/12 06:00:41;;;;;;;83.53;39.43;;;-2.50;63.10;;;;;;5016172;28;20026;-61
2022/03/12 06:03:10;;;;;;;84.90;38.70;;;-2.50;63.60;;;;;;5015970;28;20543;-60
2022/03/12 06:05:46;;;;;;;90.33;42.30;;;-2.40;63.50;;;;;;5015973;28;20024;-60
2022/03/12 06:08:14;;;;;;;78.53;35.17;;;-2.40;63.80;;;;;;5016076;28;20026;-60
2022/03/12 06:10:44;;;;;;;81.27;36.60;;;-2.50;64.10;;;;;;5015610;28;20026;-62
2022/03/12 06:13:10;;;;;;;77.33;39.37;;;-2.40;63.50;;;;;;5015573;28;20038;-61
2022/03/12 06:15:40;;;;;;;70.37;34.27;;;-2.30;63.40;;;;;;5015974;28;20480;-60
2022/03/12 06:18:08;;;;;;;63.17;31.23;;;-2.20;63.50;;;;;;5015774;28;20030;-61
2022/03/12 06:20:37;;;;;;;72.43;34.70;;;-2.20;63.30;;;;;;5015650;28;20092;-60
2022/03/12 06:23:03;;;;;;;73.03;36.13;;;-2.20;63.30;;;;;;5015346;28;20026;-60
2022/03/12 06:25:30;;;;;;;84.90;41.77;;;-2.10;63.60;;;;;;5015580;28;20025;-61
2022/03/12 06:27:56;;;;;;;86.63;41.70;;;-1.90;63.70;;;;;;5015761;28;20096;-61
2022/03/12 06:30:24;;;;;;;68.83;32.97;;;-1.80;63.80;;;;;;5015502;28;20436;-61
2022/03/12 06:32:51;;;;;;;78.63;36.80;;;-1.80;62.80;;;;;;5015319;28;20026;-61
2022/03/12 06:35:17;;;;;;;255.33;110.87;;;-1.70;63.50;;;;;;5015349;28;20026;-62
2022/03/12 06:37:44;;;;;;;254.37;110.90;;;-0.90;63.00;;;;;;5015054;28;20088;-61
2022/03/12 06:40:14;;;;;;;176.17;79.47;;;1.80;58.40;;;;;;5015513;28;20029;-61
2022/03/12 06:42:45;;;;;;;141.37;67.43;;;4.70;51.80;;;;;;5014889;28;20030;-62
2022/03/12 06:45:16;;;;;;;116.45;52.20;;;6.70;46.00;;;;;;5015161;28;20026;-61
2022/03/12 06:47:43;;;;;;;87.47;43.90;;;8.50;41.40;;;;;;5015117;28;20500;-61
2022/03/12 06:50:12;;;;;;;71.78;36.92;;;9.60;39.80;;;;;;5015218;28;20045;-61
2022/03/12 06:52:41;;;;;;;66.05;33.92;;;10.60;36.40;;;;;;5015006;28;20026;-61
2022/03/12 06:55:08;;;;;;;59.15;31.92;;;11.50;35.10;;;;;;5014897;28;20030;-61
2022/03/12 06:57:33;;;;;;;56.20;30.65;;;11.90;33.10;;;;;;5014892;28;20451;-61
2022/03/12 06:59:59;;;;;;;83.50;43.97;;;12.50;33.20;;;;;;5014881;28;20097;-61
2022/03/12 07:02:25;;;;;;;79.63;43.78;;;13.20;32.20;;;;;;5014909;28;20045;-61
2022/03/12 07:04:51;;;;;;;65.30;37.97;;;13.60;31.40;;;;;;5014733;28;20045;-61
2022/03/12 07:07:17;;;;;;;54.17;33.53;;;14.10;31.40;;;;;;5014874;28;20123;-61
2022/03/12 07:09:43;;;;;;;58.03;35.75;;;14.30;30.30;;;;;;5014740;28;20437;-61
2022/03/12 07:12:09;;;;;;;57.20;34.78;;;14.50;30.70;;;;;;5014440;28;20052;-62
2022/03/12 07:14:36;;;;;;;55.08;34.97;;;14.80;30.20;;;;;;5014477;28;20026;-61
2022/03/12 07:17:02;;;;;;;55.15;35.08;;;15.00;30.30;;;;;;5014653;28;20361;-60
2022/03/12 07:19:28;;;;;;;57.58;35.15;;;15.70;29.30;;;;;;5014552;28;20022;-61
2022/03/12 07:21:54;;;;;;;58.10;35.45;;;16.60;28.70;;;;;;5014275;28;20077;-62
2022/03/12 07:24:19;;;;;;;58.10;35.35;;;17.00;28.80;;;;;;5014698;28;20026;-61
2022/03/12 07:26:45;;;;;;;55.42;34.40;;;17.50;27.80;;;;;;5014466;28;20384;-62
2022/03/12 07:29:12;;;;;;;46.78;31.13;;;17.60;27.80;;;;;;5014279;28;20072;-61
2022/03/12 07:31:39;;;;;;;48.03;30.08;;;17.90;27.90;;;;;;5014360;28;20018;-61
2022/03/12 07:34:05;;;;;;;51.05;32.35;;;18.00;27.60;;;;;;5014256;28;20120;-61
2022/03/12 07:36:31;;;;;;;45.90;29.65;;;18.20;27.20;;;;;;5014044;28;20029;-61
2022/03/12 07:39:02;;;;;;;41.90;28.45;;;18.30;27.50;;;;;;5014230;28;20022;-62
2022/03/12 07:41:28;;;;;;;44.38;27.02;;;18.50;27.30;;;;;;5014284;28;20380;-61
2022/03/12 07:43:54;;;;;;;38.33;26.02;;;18.20;27.40;;;;;;5014356;28;20026;-61
2022/03/12 07:46:21;;;;;;;38.88;26.42;;;18.60;27.10;;;;;;5014181;28;20053;-61
2022/03/12 07:48:47;;;;;;;48.20;29.73;;;19.20;27.00;;;;;;5014124;28;20053;-61
2022/03/12 07:51:13;;;;;;;50.38;31.35;;;19.50;26.20;;;;;;5013788;28;20026;-61
2022/03/12 07:53:39;;;;;;;42.30;28.25;;;19.10;26.00;;;;;;5013741;28;20033;-61
2022/03/12 07:56:07;;;;;;;39.03;26.17;;;18.70;26.70;;;;;;5013359;28;20026;-61
2022/03/12 07:58:33;;;;;;;38.45;24.98;;;19.20;27.10;;;;;;5013903;28;20026;-61
2022/03/12 08:01:00;;;;;;;38.45;24.30;;;19.50;26.30;;;;;;5014030;28;20105;-61
2022/03/12 08:03:26;;;;;;;34.53;23.85;;;20.10;26.80;;;;;;5013872;28;20022;-61
2022/03/12 08:05:52;;;;;;;37.00;25.30;;;19.70;26.40;;;;;;5013551;28;20032;-62
2022/03/12 08:08:19;;;;;;;51.00;32.88;;;19.90;26.60;;;;;;5013968;28;20105;-61
2022/03/12 08:13:29;;;;;;;48.22;30.85;;;20.00;26.10;;;;;;5013451;28;20135;-61
2022/03/12 08:15:57;;;;;;;54.42;32.15;;;20.60;26.00;;;;;;5013931;28;20046;-62
2022/03/12 08:18:23;;;;;;;53.60;34.67;;;20.40;26.10;;;;;;5013659;28;20022;-62
2022/03/12 08:20:50;;;;;;;43.53;30.52;;;20.10;25.40;;;;;;5013314;28;20037;-62
2022/03/12 08:23:16;;;;;;;43.78;28.50;;;19.60;26.00;;;;;;5013543;28;20385;-61
2022/03/12 08:25:42;;;;;;;46.35;30.95;;;19.70;26.20;;;;;;5013673;28;20076;-61
2022/03/12 08:28:09;;;;;;;43.58;28.17;;;20.10;25.80;;;;;;5013436;28;20026;-61
2022/03/12 08:30:36;;;;;;;47.10;31.05;;;20.20;26.10;;;;;;5013985;28;20420;-61
2022/03/12 08:33:02;;;;;;;43.85;29.13;;;20.30;25.80;;;;;;5013683;28;20038;-61
2022/03/12 08:35:28;;;;;;;50.00;32.30;;;20.40;26.30;;;;;;5013477;28;20042;-61
2022/03/12 08:37:55;;;;;;;45.40;30.35;;;20.30;25.20;;;;;;5013419;28;20060;-62
2022/03/12 08:40:22;;;;;;;45.70;30.70;;;20.70;25.30;;;;;;5013672;28;20018;-61
2022/03/12 08:42:48;;;;;;;47.90;30.60;;;20.30;25.10;;;;;;5013263;28;20053;-62
2022/03/12 08:45:13;;;;;;;45.58;30.95;;;20.70;24.90;;;;;;5013653;28;20069;-62
2022/03/12 08:47:40;;;;;;;45.67;30.17;;;21.00;24.40;;;;;;5013278;28;20468;-62
2022/03/12 08:50:08;;;;;;;51.55;35.95;;;20.80;25.10;;;;;;5013011;28;20033;-62
2022/03/12 08:52:35;;;;;;;63.22;40.65;;;20.60;24.60;;;;;;5013238;28;20033;-61
2022/03/12 08:55:01;;;;;;;48.28;32.38;;;20.10;24.30;;;;;;5013273;28;20026;-61
2022/03/12 08:57:27;;;;;;;46.30;32.28;;;19.60;25.90;;;;;;5013214;28;20065;-62
2022/03/12 08:59:53;;;;;;;43.45;30.67;;;19.30;24.80;;;;;;5013209;28;20034;-61
2022/03/12 09:02:18;;;;;;;45.15;31.65;;;19.00;25.00;;;;;;5013214;28;20365;-62
2022/03/12 09:04:45;;;;;;;42.33;28.02;;;18.20;25.50;;;;;;5013311;28;20365;-61
2022/03/12 09:07:10;;;;;;;44.90;28.13;;;17.70;26.00;;;;;;5015712;28;20033;-62
2022/03/12 09:09:37;;;;;;;35.63;25.40;;;16.60;26.00;;;;;;5017068;28;20400;-62
2022/03/12 09:12:03;;;;;;;34.53;23.25;;;16.20;26.30;;;;;;5016916;28;20403;-62
2022/03/12 09:14:29;;;;;;;32.15;20.83;;;15.70;26.60;;;;;;5016704;28;20040;-62
2022/03/12 09:16:55;;;;;;;33.47;23.98;;;15.10;27.00;;;;;;5016703;28;20098;-61
2022/03/12 09:19:21;;;;;;;47.33;27.58;;;14.40;26.90;;;;;;5016727;28;20148;-62
2022/03/12 09:21:46;;;;;;;43.13;27.70;;;14.10;26.70;;;;;;5016684;28;20101;-61
2022/03/12 09:24:13;;;;;;;39.13;25.90;;;13.40;27.80;;;;;;5016665;28;20368;-61
2022/03/12 09:26:39;;;;;;;38.33;22.77;;;13.00;29.80;;;;;;5016658;28;20419;-61
2022/03/12 09:29:04;;;;;;;35.05;22.17;;;12.50;28.80;;;;;;5016471;28;20018;-61
2022/03/12 09:31:30;;;;;;;30.40;20.35;;;11.90;29.00;;;;;;5016455;28;20388;-61
2022/03/12 09:33:56;;;;;;;25.17;17.25;;;11.40;29.20;;;;;;5048215;28;20508;-61
2022/03/12 09:36:22;;;;;;;23.33;15.48;;;11.20;28.30;;;;;;5016545;28;20093;-61
2022/03/12 09:38:47;;;;;;;21.77;14.70;;;11.40;28.10;;;;;;5016678;28;20018;-61
2022/03/12 09:41:13;;;;;;;24.67;15.52;;;11.60;27.10;;;;;;5016742;28;20018;-61
2022/03/12 09:43:39;;;;;;;22.67;15.52;;;12.30;28.20;;;;;;5016394;28;20380;-62
2022/03/12 09:46:05;;;;;;;22.25;14.57;;;12.60;28.30;;;;;;5016082;28;20022;-62
2022/03/12 09:48:31;;;;;;;20.25;14.10;;;12.90;26.60;;;;;;5016288;28;20022;-61
2022/03/12 09:50:57;;;;;;;23.02;15.20;;;13.30;26.70;;;;;;5016303;28;20030;-62
2022/03/12 09:53:23;;;;;;;23.83;14.57;;;13.80;25.80;;;;;;5015971;28;20388;-61
2022/03/12 09:55:49;;;;;;;21.60;14.57;;;14.00;26.00;;;;;;5016233;28;20053;-62
2022/03/12 09:58:14;;;;;;;18.95;13.18;;;13.90;25.80;;;;;;5016137;28;20440;-62
2022/03/12 10:00:40;;;;;;;18.58;12.75;;;13.90;26.30;;;;;;5015679;28;20480;-62
2022/03/12 10:03:06;;;;;;;20.55;12.77;;;13.90;25.40;;;;;;5016051;28;20105;-62
2022/03/12 10:05:34;;;;;;;19.27;12.95;;;13.40;24.60;;;;;;5016086;28;20193;-62
2022/03/12 10:08:00;;;;;;;19.67;13.73;;;13.20;26.80;;;;;;5015857;28;20109;-62
2022/03/12 10:10:26;;;;;;;17.13;12.43;;;13.30;26.80;;;;;;5016031;28;20566;-61
2022/03/12 10:12:52;;;;;;;22.05;14.48;;;13.50;26.60;;;;;;5015621;28;20046;-62
2022/03/12 10:15:19;;;;;;;19.27;14.73;;;13.80;26.20;;;;;;5015584;28;20026;-62
2022/03/12 10:17:47;;;;;;;17.33;13.07;;;14.20;26.20;;;;;;5015349;28;20044;-62
2022/03/12 10:20:13;;;;;;;20.23;14.35;;;14.40;28.10;;;;;;5015985;28;20029;-62
2022/03/12 10:22:41;;;;;;;18.02;13.40;;;13.30;25.20;;;;;;5015692;28;20022;-62
2022/03/12 10:25:07;;;;;;;16.63;13.07;;;13.20;25.00;;;;;;5015544;28;20101;-62
2022/03/12 10:27:34;;;;;;;17.55;13.05;;;13.70;25.30;;;;;;5015857;28;20101;-62
2022/03/12 10:30:00;;;;;;;19.52;13.48;;;14.40;25.50;;;;;;5015633;28;20018;-62
2022/03/12 10:32:34;;;;;;;21.92;14.68;;;14.60;26.20;;;;;;5015426;28;20385;-62
2022/03/12 10:35:02;;;;;;;20.85;14.38;;;14.50;25.00;;;;;;5015569;28;20038;-61
2022/03/12 10:37:30;;;;;;;18.92;12.75;;;14.30;26.60;;;;;;5015289;28;20018;-61
2022/03/12 10:40:24;;;;;;;16.70;12.43;;;14.50;27.70;;;;;;5015413;28;20025;-62
2022/03/12 10:42:56;;;;;;;17.00;12.23;;;14.00;26.70;;;;;;5015199;28;20048;-61
2022/03/12 10:45:27;;;;;;;18.88;11.65;;;13.90;29.40;;;;;;5015110;28;20092;-61
2022/03/12 10:47:58;;;;;;;17.08;12.75;;;13.40;25.00;;;;;;5015229;28;20022;-62
2022/03/12 10:50:51;;;;;;;15.45;11.50;;;13.20;25.20;;;;;;5015395;28;20096;-61
2022/03/12 10:53:18;;;;;;;15.90;11.18;;;13.60;27.40;;;;;;5015415;28;20408;-61
2022/03/12 10:55:46;;;;;;;21.80;14.75;;;14.00;28.20;;;;;;5015145;28;20037;-61
2022/03/12 10:58:24;;;;;;;19.30;14.32;;;13.50;25.30;;;;;;5014985;28;20033;-61
2022/03/12 11:00:54;;;;;;;20.05;13.77;;;13.80;25.70;;;;;;5014872;28;20018;-61
2022/03/12 11:03:23;;;;;;;16.95;11.73;;;13.50;26.50;;;;;;5014948;28;20109;-62
2022/03/12 11:05:51;;;;;;;16.50;12.30;;;13.60;25.90;;;;;;5014799;28;20101;-61
2022/03/12 11:08:24;;;;;;;17.95;10.82;;;13.80;25.70;;;;;;5014747;28;20030;-61
2022/03/12 11:11:00;;;;;;;15.70;11.73;;;13.90;24.80;;;;;;5014760;28;20098;-61
2022/03/12 11:13:42;;;;;;;16.67;11.48;;;13.90;25.70;;;;;;5014170;28;20515;-61
2022/03/12 11:16:28;;;;;;;14.38;10.80;;;14.50;24.90;;;;;;5014759;28;20026;-61
2022/03/12 11:18:53;;;;;;;17.27;11.48;;;15.00;24.80;;;;;;5014617;28;20117;-61
2022/03/12 11:21:40;;;;;;;16.73;11.88;;;15.00;24.60;;;;;;5014634;28;20057;-61
2022/03/12 11:24:43;;;;;;;13.38;10.63;;;14.60;25.60;;;;;;5014688;28;20022;-62
2022/03/12 11:27:13;;;;;;;12.88;9.73;;;14.30;25.60;;;;;;5020749;28;20113;-61
2022/03/12 11:29:39;;;;;;;12.95;9.60;;;14.30;26.00;;;;;;5013296;28;20018;-62
2022/03/12 11:32:09;;;;;;;13.73;9.10;;;14.40;26.60;;;;;;5014464;28;20093;-62
2022/03/12 11:34:40;;;;;;;11.68;8.40;;;14.80;25.70;;;;;;5014255;28;20041;-61
2022/03/12 11:37:13;;;;;;;11.70;8.32;;;15.00;25.50;;;;;;5014454;28;20548;-62
2022/03/12 11:39:45;;;;;;;9.82;8.30;;;15.30;27.70;;;;;;5014393;28;20088;-61
2022/03/12 11:42:15;;;;;;;14.27;8.40;;;15.40;26.60;;;;;;5014476;28;20029;-61
2022/03/12 11:44:49;;;;;;;12.40;8.82;;;15.30;25.90;;;;;;5014261;28;20410;-62
2022/03/12 11:47:19;;;;;;;10.77;8.60;;;14.70;26.90;;;;;;5014276;28;20026;-61
2022/03/12 11:49:45;;;;;;;10.45;8.55;;;14.40;26.20;;;;;;5013989;28;20030;-62
2022/03/12 11:52:11;;;;;;;14.38;10.48;;;14.50;25.70;;;;;;5014192;28;20029;-62
2022/03/12 11:54:42;;;;;;;12.73;10.38;;;14.70;23.90;;;;;;5013862;28;20108;-62
2022/03/12 11:57:19;;;;;;;14.15;9.13;;;14.60;26.70;;;;;;5013845;28;20495;-61
2022/03/12 11:59:45;;;;;;;10.75;8.45;;;15.20;28.20;;;;;;5013838;28;20108;-62
2022/03/12 12:02:34;;;;;;;17.38;11.68;;;15.40;26.70;;;;;;5014119;28;20077;-62
2022/03/12 12:05:04;;;;;;;14.35;10.48;;;15.40;24.90;;;;;;5013781;28;20040;-62
2022/03/12 12:07:36;;;;;;;13.98;10.68;;;15.10;24.80;;;;;;5013884;28;20030;-61
2022/03/12 12:10:03;;;;;;;16.55;11.07;;;14.90;27.20;;;;;;5044199;28;20026;-62
2022/03/12 12:12:32;;;;;;;18.80;12.50;;;15.00;24.80;;;;;;5013692;28;20115;-62
2022/03/12 12:14:58;;;;;;;15.25;11.07;;;15.00;24.10;;;;;;5013639;28;20037;-61
2022/03/12 12:17:25;;;;;;;16.33;11.40;;;13.80;25.80;;;;;;5013709;28;20025;-61
2022/03/12 12:19:51;;;;;;;22.85;12.63;;;14.10;26.60;;;;;;5013569;28;20030;-61
2022/03/12 12:22:18;;;;;;;17.20;11.20;;;14.10;26.40;;;;;;5013620;28;20101;-61
2022/03/12 12:24:44;;;;;;;15.18;11.07;;;14.10;25.70;;;;;;5013689;28;20030;-61
2022/03/12 12:27:12;;;;;;;16.52;10.93;;;14.50;27.70;;;;;;5013315;28;20084;-61
2022/03/12 12:29:41;;;;;;;13.48;9.98;;;14.90;27.90;;;;;;5013806;28;20018;-61
2022/03/12 12:32:12;;;;;;;15.98;10.30;;;14.70;26.40;;;;;;5013472;28;20029;-61